Time;durP1;ratioP1;P1;durP2;ratioP2;P2;SDS_P1;SDS_P2;PMS_P1;PMS_P2;Temp;Humidity;BMP_temperature;BMP_pressure;BME280_temperature;BME280_humidity;BME280_pressure;Samples;Min_cycle;Max_cycle;Signal;HPM_P1;HPM_P2
2023/12/05 00:02:12;;;;;;;;;;;;;;;-0.30;71.74;99736.78;4435164;32;32855;-81
2023/12/05 00:04:42;;;;;;;;;;;;;;;-0.32;71.33;99737.56;4431411;32;34332;-83
2023/12/05 00:07:11;;;;;;;;;;;;;;;-0.23;71.67;99741.25;4431429;32;33144;-83
2023/12/05 00:09:39;;;;;;;;;;;;;;;-0.13;70.69;99736.44;4431152;32;32938;-82
2023/12/05 00:12:08;;;;;;;;;;;;;;;-0.30;71.78;99736.78;4431404;32;33717;-82
2023/12/05 00:14:38;;;;;;;;;;;;;;;0.31;69.30;99737.75;4437051;32;34637;-84
2023/12/05 00:17:06;;;;;;;;;;;;;;;0.11;70.13;99723.56;4431597;32;34706;-82
2023/12/05 00:19:35;;;;;;;;;;;;;;;-0.49;72.32;99724.28;4424384;32;32891;-81
2023/12/05 00:22:03;;;;;;;;;;;;;;;-0.21;71.10;99738.75;4416094;32;33512;-81
2023/12/05 00:24:32;;;;;;;;;;;;;;;-0.27;71.10;99736.00;4421593;32;34063;-83
2023/12/05 00:27:01;;;;;;;;;;;;;;;-0.28;71.60;99739.38;4417784;32;33966;-82
2023/12/05 00:29:29;;;;;;;;;;;;;;;0.09;69.85;99720.94;4431782;32;32968;-81
2023/12/05 00:31:59;;;;;;;;;;;;;;;0.08;70.06;99724.34;4431266;32;34623;-82
2023/12/05 00:34:27;;;;;;;;;;;;;;;-0.61;71.83;99726.44;4423073;32;34409;-83
2023/12/05 00:36:56;;;;;;;;;;;;;;;-0.44;71.56;99726.16;4419877;32;35173;-81
2023/12/05 00:39:24;;;;;;;;;;;;;;;-0.02;70.52;99727.44;4430744;32;32936;-82
2023/12/05 00:41:53;;;;;;;;;;;;;;;-0.95;73.19;99723.66;4431234;32;35038;-81
2023/12/05 00:44:21;;;;;;;;;;;;;;;-1.03;73.88;99725.09;4430606;32;33998;-84
2023/12/05 00:46:50;;;;;;;;;;;;;;;-0.98;73.05;99717.59;4426998;32;34737;-84
2023/12/05 00:49:20;;;;;;;;;;;;;;;-0.72;72.20;99724.41;4415616;32;33154;-83
2023/12/05 00:51:48;;;;;;;;;;;;;;;-0.57;71.43;99730.84;4415229;32;33543;-84
2023/12/05 00:54:17;;;;;;;;;;;;;;;-0.93;73.66;99732.22;4424564;32;34123;-81
2023/12/05 00:56:45;;;;;;;;;;;;;;;-0.51;71.88;99725.91;4436996;32;34231;-81
2023/12/05 00:59:14;;;;;;;;;;;;;;;-0.46;71.77;99732.03;4430994;32;32880;-82
2023/12/05 01:01:42;;;;;;;;;;;;;;;-0.14;70.69;99732.19;4424163;32;34556;-83
2023/12/05 01:04:11;;;;;;;;;;;;;;;0.13;69.40;99727.88;4415662;32;34246;-82
2023/12/05 01:06:41;;;;;;;;;;;;;;;-0.31;69.80;99721.47;4426632;32;33457;-84
2023/12/05 01:09:10;;;;;;;;;;;;;;;0.45;67.75;99719.41;4434542;32;33895;-82
2023/12/05 01:11:39;;;;;;;;;;;;;;;-0.27;70.42;99718.16;4431065;32;34846;-84
2023/12/05 01:14:07;;;;;;;;;;;;;;;-1.02;72.64;99718.31;4431175;32;33667;-82
2023/12/05 01:16:36;;;;;;;;;;;;;;;0.00;69.41;99715.59;4430974;32;33938;-84
2023/12/05 01:19:04;;;;;;;;;;;;;;;-0.59;70.38;99725.69;4435859;32;33554;-83
2023/12/05 01:21:33;;;;;;;;;;;;;;;0.12;69.09;99720.16;4431117;32;33696;-82
2023/12/05 01:24:03;;;;;;;;;;;;;;;-0.12;69.33;99715.22;4431075;32;35205;-81
2023/12/05 01:26:31;;;;;;;;;;;;;;;-0.47;71.27;99713.31;4430961;32;35364;-82
2023/12/05 01:29:02;;;;;;;;;;;;;;;-0.77;72.33;99692.84;4419397;32;33099;-83
2023/12/05 01:31:33;;;;;;;;;;;;;;;-0.71;73.20;99682.84;4416034;32;33788;-82
2023/12/05 01:34:01;;;;;;;;;;;;;;;-0.42;72.06;99665.03;4415369;32;34231;-81
2023/12/05 01:36:30;;;;;;;;;;;;;;;-0.39;72.39;99662.56;4416046;32;33966;-81
2023/12/05 01:38:59;;;;;;;;;;;;;;;-0.83;74.03;99645.94;4415753;32;33986;-81
2023/12/05 01:41:29;;;;;;;;;;;;;;;-0.50;73.28;99646.97;4421279;32;34240;-83
2023/12/05 01:43:57;;;;;;;;;;;;;;;-0.28;72.01;99643.37;4424828;32;35139;-84
2023/12/05 01:46:26;;;;;;;;;;;;;;;-1.13;74.84;99651.78;4428449;32;33596;-81
2023/12/05 01:48:54;;;;;;;;;;;;;;;-0.77;73.55;99641.91;4430208;32;33337;-82
2023/12/05 01:51:23;;;;;;;;;;;;;;;-0.63;73.04;99647.41;4435393;32;33437;-81
2023/12/05 01:53:52;;;;;;;;;;;;;;;-0.46;73.15;99655.56;4422467;32;34420;-84
2023/12/05 01:56:21;;;;;;;;;;;;;;;-0.29;73.24;99654.41;4430608;32;34360;-82
2023/12/05 01:58:50;;;;;;;;;;;;;;;-0.25;73.03;99650.25;4429735;32;33045;-81
2023/12/05 02:01:19;;;;;;;;;;;;;;;-0.18;73.11;99644.50;4436289;32;34701;-82
2023/12/05 02:03:49;;;;;;;;;;;;;;;-0.08;72.45;99638.00;4432360;32;34923;-81
2023/12/05 02:06:18;;;;;;;;;;;;;;;-0.96;75.79;99630.25;4430852;32;33496;-81
2023/12/05 02:08:47;;;;;;;;;;;;;;;-0.75;76.53;99636.84;4430019;32;33704;-81
2023/12/05 02:11:17;;;;;;;;;;;;;;;-0.09;73.33;99629.50;4430758;32;33929;-81
2023/12/05 02:13:45;;;;;;;;;;;;;;;-1.03;77.45;99620.69;4435936;32;33883;-81
2023/12/05 02:16:16;;;;;;;;;;;;;;;-1.04;77.88;99616.41;4429158;32;33284;-81
2023/12/05 02:18:47;;;;;;;;;;;;;;;-0.77;76.51;99611.34;4430936;32;32785;-81
2023/12/05 02:21:16;;;;;;;;;;;;;;;-1.18;77.35;99613.44;4431051;32;33223;-82
2023/12/05 02:23:51;;;;;;;;;;;;;;;-0.60;76.01;99608.41;4436229;32;33864;-81
2023/12/05 02:26:23;;;;;;;;;;;;;;;-0.08;73.39;99607.41;4434854;32;34056;-84
2023/12/05 02:28:53;;;;;;;;;;;;;;;-0.28;74.25;99597.50;4431556;32;33529;-82
2023/12/05 02:31:22;;;;;;;;;;;;;;;-0.51;74.66;99594.28;4430809;32;33629;-83
2023/12/05 02:33:50;;;;;;;;;;;;;;;-0.01;73.07;99584.66;4430229;32;35123;-82
2023/12/05 02:36:20;;;;;;;;;;;;;;;0.02;73.09;99580.47;4436143;32;33612;-84
2023/12/05 02:38:50;;;;;;;;;;;;;;;0.00;73.43;99590.63;4430350;32;33366;-82
2023/12/05 02:41:19;;;;;;;;;;;;;;;-0.37;74.76;99593.81;4430377;32;32662;-81
2023/12/05 02:43:49;;;;;;;;;;;;;;;-0.68;74.88;99591.25;4429513;32;34047;-83
2023/12/05 02:46:19;;;;;;;;;;;;;;;-0.54;76.05;99586.53;4435627;32;34020;-84
2023/12/05 02:48:48;;;;;;;;;;;;;;;-1.11;78.21;99586.50;4430946;32;34223;-82
2023/12/05 02:51:17;;;;;;;;;;;;;;;-0.61;76.04;99589.72;4430382;32;34829;-83
2023/12/05 02:53:49;;;;;;;;;;;;;;;0.14;73.11;99589.31;4430186;32;34230;-84
2023/12/05 02:56:18;;;;;;;;;;;;;;;-0.58;75.47;99582.19;4432981;32;34721;-82
2023/12/05 02:58:46;;;;;;;;;;;;;;;-0.15;73.93;99580.84;4435940;32;32765;-83
2023/12/05 03:01:15;;;;;;;;;;;;;;;0.25;72.31;99587.06;4419197;32;34813;-81
2023/12/05 03:03:48;;;;;;;;;;;;;;;-0.40;73.97;99573.34;4417072;32;33550;-81
2023/12/05 03:06:17;;;;;;;;;;;;;;;-0.29;74.32;99580.50;4430299;32;32972;-81
2023/12/05 03:08:45;;;;;;;;;;;;;;;0.23;72.23;99575.09;4435560;32;34383;-83
2023/12/05 03:11:14;;;;;;;;;;;;;;;-0.30;74.16;99577.88;4430133;32;34732;-83
2023/12/05 03:13:42;;;;;;;;;;;;;;;0.13;72.54;99569.72;4429832;32;34002;-81
2023/12/05 03:16:11;;;;;;;;;;;;;;;-0.67;75.27;99570.03;4430081;32;33963;-81
2023/12/05 03:18:39;;;;;;;;;;;;;;;-1.01;76.61;99564.75;4416946;32;33350;-83
2023/12/05 03:21:10;;;;;;;;;;;;;;;-0.45;76.25;99557.91;4429409;32;34997;-81
2023/12/05 03:23:38;;;;;;;;;;;;;;;-1.09;78.12;99561.94;4430634;32;34035;-83
2023/12/05 03:26:07;;;;;;;;;;;;;;;-0.83;77.28;99560.19;4430577;32;34004;-83
2023/12/05 03:28:36;;;;;;;;;;;;;;;-0.20;74.58;99559.47;4429086;32;33909;-80
2023/12/05 03:31:05;;;;;;;;;;;;;;;-0.45;75.20;99553.69;4435195;32;34826;-84
2023/12/05 03:33:33;;;;;;;;;;;;;;;-0.56;74.79;99555.03;4429408;32;33644;-82
2023/12/05 03:36:02;;;;;;;;;;;;;;;-0.22;74.58;99546.69;4429550;32;33355;-82
2023/12/05 03:38:31;;;;;;;;;;;;;;;-0.55;76.18;99548.28;4429217;32;33888;-83
2023/12/05 03:41:08;;;;;;;;;;;;;;;-0.29;74.60;99539.69;4434827;32;33755;-82
2023/12/05 03:43:40;;;;;;;;;;;;;;;-0.08;74.61;99534.31;4433252;32;34163;-82
2023/12/05 03:46:10;;;;;;;;;;;;;;;0.13;73.15;99526.38;4429237;32;34036;-84
2023/12/05 03:48:41;;;;;;;;;;;;;;;-0.36;75.02;99529.25;4429274;32;32930;-84
2023/12/05 03:51:09;;;;;;;;;;;;;;;-0.35;75.01;99528.47;4428693;32;34366;-82
2023/12/05 03:53:39;;;;;;;;;;;;;;;-0.15;74.45;99537.50;4434680;32;33872;-83
2023/12/05 03:56:08;;;;;;;;;;;;;;;-0.03;73.49;99537.84;4429437;32;34079;-82
2023/12/05 03:58:37;;;;;;;;;;;;;;;0.33;71.86;99533.66;4429549;32;32570;-83
2023/12/05 04:01:05;;;;;;;;;;;;;;;0.01;73.36;99531.16;4429585;32;34201;-82
2023/12/05 04:03:35;;;;;;;;;;;;;;;-0.06;73.74;99532.66;4431983;32;34940;-84
2023/12/05 04:06:04;;;;;;;;;;;;;;;-0.13;73.93;99518.03;4434555;32;34130;-83
2023/12/05 04:08:32;;;;;;;;;;;;;;;-0.38;74.93;99518.19;4423398;32;33038;-81
2023/12/05 04:11:02;;;;;;;;;;;;;;;-0.63;75.85;99521.72;4423718;32;34067;-83
2023/12/05 04:13:30;;;;;;;;;;;;;;;-0.46;75.28;99515.41;4430128;32;33837;-81
2023/12/05 04:15:59;;;;;;;;;;;;;;;0.09;73.73;99509.25;4436659;32;33930;-81
2023/12/05 04:18:27;;;;;;;;;;;;;;;0.10;73.85;99513.53;4431251;32;33250;-82
2023/12/05 04:20:56;;;;;;;;;;;;;;;0.03;74.24;99510.78;4431582;32;33775;-83
2023/12/05 04:23:25;;;;;;;;;;;;;;;-0.17;74.49;99508.59;4431711;32;33893;-82
2023/12/05 04:25:53;;;;;;;;;;;;;;;-1.00;76.60;99513.00;4429791;32;33763;-81
2023/12/05 04:28:23;;;;;;;;;;;;;;;-0.35;75.50;99508.94;4431292;32;33710;-81
2023/12/05 04:30:54;;;;;;;;;;;;;;;-0.30;75.29;99516.72;4431254;32;34010;-82
2023/12/05 04:33:23;;;;;;;;;;;;;;;-0.08;74.71;99519.00;4430830;32;34918;-82
2023/12/05 04:35:51;;;;;;;;;;;;;;;0.23;73.62;99518.94;4431197;32;34674;-80
2023/12/05 04:38:20;;;;;;;;;;;;;;;0.18;73.64;99526.50;4437220;32;33888;-83
2023/12/05 04:40:48;;;;;;;;;;;;;;;-0.16;74.14;99517.94;4431592;32;34592;-82
2023/12/05 04:43:17;;;;;;;;;;;;;;;0.15;74.30;99517.06;4420659;32;33614;-81
2023/12/05 04:45:46;;;;;;;;;;;;;;;-0.14;74.62;99523.09;4428749;32;33771;-83
2023/12/05 04:48:17;;;;;;;;;;;;;;;0.07;74.42;99512.56;4437091;32;33634;-81
2023/12/05 04:50:45;;;;;;;;;;;;;;;-0.37;75.50;99514.81;4431355;32;34536;-84
2023/12/05 04:53:14;;;;;;;;;;;;;;;0.03;73.86;99506.56;4431196;32;33839;-84
2023/12/05 04:55:42;;;;;;;;;;;;;;;0.44;72.90;99510.97;4431217;32;33878;-82
2023/12/05 04:58:11;;;;;;;;;;;;;;;-0.14;74.44;99511.22;4436767;32;33397;-83
2023/12/05 05:00:39;;;;;;;;;;;;;;;0.42;72.34;99508.38;4420649;32;33973;-81
2023/12/05 05:03:09;;;;;;;;;;;;;;;0.12;74.12;99511.91;4415877;32;33708;-83
2023/12/05 05:05:38;;;;;;;;;;;;;;;0.29;73.57;99519.97;4416786;32;34245;-83
2023/12/05 05:08:06;;;;;;;;;;;;;;;0.56;72.23;99513.81;4431294;32;33293;-82
2023/12/05 05:10:35;;;;;;;;;;;;;;;-0.06;74.75;99512.25;4436574;32;34144;-80
2023/12/05 05:13:05;;;;;;;;;;;;;;;0.40;72.60;99513.44;4430719;32;33986;-82
2023/12/05 05:15:34;;;;;;;;;;;;;;;0.60;71.40;99516.50;4430617;32;33212;-83
2023/12/05 05:18:02;;;;;;;;;;;;;;;0.25;73.64;99525.81;4418707;32;33387;-82
2023/12/05 05:20:32;;;;;;;;;;;;;;;0.46;72.92;99515.28;4436250;32;33457;-84
2023/12/05 05:23:01;;;;;;;;;;;;;;;0.38;73.15;99519.31;4431159;32;33807;-81
2023/12/05 05:25:29;;;;;;;;;;;;;;;0.27;72.68;99523.31;4430878;32;34246;-82
2023/12/05 05:27:58;;;;;;;;;;;;;;;0.52;72.09;99523.09;4431250;32;34141;-84
2023/12/05 05:30:27;;;;;;;;;;;;;;;0.39;73.17;99515.97;4430975;32;33524;-84
2023/12/05 05:32:55;;;;;;;;;;;;;;;0.25;73.80;99518.16;4436208;32;34252;-83
2023/12/05 05:35:24;;;;;;;;;;;;;;;0.59;72.11;99514.75;4430696;32;33496;-82
2023/12/05 05:37:54;;;;;;;;;;;;;;;0.29;73.82;99514.00;4433197;32;33600;-83
2023/12/05 05:40:23;;;;;;;;;;;;;;;0.12;73.85;99516.13;4431182;32;34160;-83
2023/12/05 05:42:51;;;;;;;;;;;;;;;0.29;72.90;99525.09;4435165;32;34572;-81
2023/12/05 05:45:20;;;;;;;;;;;;;;;0.09;74.55;99516.91;4430462;32;34954;-84
2023/12/05 05:47:48;;;;;;;;;;;;;;;0.54;72.72;99518.88;4415192;32;34093;-84
2023/12/05 05:50:18;;;;;;;;;;;;;;;0.59;72.56;99530.06;4415116;32;32778;-83
2023/12/05 05:52:48;;;;;;;;;;;;;;;0.65;72.16;99524.22;4435918;32;33593;-82
2023/12/05 05:55:18;;;;;;;;;;;;;;;0.65;72.46;99519.13;4430782;32;33721;-83
2023/12/05 05:57:47;;;;;;;;;;;;;;;0.79;71.58;99517.75;4426553;32;33043;-84
2023/12/05 06:00:16;;;;;;;;;;;;;;;0.53;72.33;99518.84;4425998;32;33901;-84
2023/12/05 06:02:45;;;;;;;;;;;;;;;0.36;73.56;99520.97;4423138;32;33582;-82
2023/12/05 06:05:14;;;;;;;;;;;;;;;0.77;71.89;99521.09;4427662;32;36147;-81
2023/12/05 06:07:42;;;;;;;;;;;;;;;0.98;70.52;99515.63;4422458;32;33657;-82
2023/12/05 06:10:11;;;;;;;;;;;;;;;0.45;72.88;99523.75;4426547;32;34161;-81
2023/12/05 06:12:40;;;;;;;;;;;;;;;0.69;71.79;99515.81;4429266;32;34758;-84
2023/12/05 06:15:09;;;;;;;;;;;;;;;1.05;70.86;99525.16;4433052;32;33899;-81
2023/12/05 06:17:38;;;;;;;;;;;;;;;0.70;71.98;99516.69;4428744;32;33838;-81
2023/12/05 06:20:08;;;;;;;;;;;;;;;0.61;71.82;99525.00;4426519;32;34790;-82
2023/12/05 06:22:37;;;;;;;;;;;;;;;0.82;71.76;99522.97;4428684;32;34124;-82
2023/12/05 06:25:05;;;;;;;;;;;;;;;1.14;70.46;99529.63;4427501;32;33638;-82
2023/12/05 06:27:34;;;;;;;;;;;;;;;1.10;70.65;99531.25;4435770;32;33390;-81
2023/12/05 06:30:04;;;;;;;;;;;;;;;0.28;72.20;99532.69;4425510;32;33449;-82
2023/12/05 06:32:44;;;;;;;;;;;;;;;1.09;70.53;99531.19;4418727;32;34729;-82
2023/12/05 06:35:13;;;;;;;;;;;;;;;0.79;72.00;99533.09;4429569;32;33998;-83
2023/12/05 06:37:42;;;;;;;;;;;;;;;0.60;72.35;99518.16;4434094;32;33621;-82
2023/12/05 06:40:11;;;;;;;;;;;;;;;0.65;71.87;99519.13;4429796;32;34919;-82
2023/12/05 06:42:44;;;;;;;;;;;;;;;0.54;72.31;99523.13;4420998;32;33850;-82
2023/12/05 06:45:14;;;;;;;;;;;;;;;-0.17;74.77;99521.34;4427993;32;33694;-84
2023/12/05 06:47:42;;;;;;;;;;;;;;;-0.19;75.95;99514.44;4429086;32;33503;-83
2023/12/05 06:50:11;;;;;;;;;;;;;;;-0.07;75.98;99517.34;4432931;32;33694;-84
2023/12/05 06:52:40;;;;;;;;;;;;;;;0.02;75.63;99515.00;4427110;32;34895;-81
2023/12/05 06:55:09;;;;;;;;;;;;;;;0.82;72.46;99506.75;4428553;32;34007;-85
2023/12/05 06:57:37;;;;;;;;;;;;;;;0.41;73.19;99520.28;4427688;32;33501;-83
2023/12/05 07:00:08;;;;;;;;;;;;;;;-0.04;75.05;99518.28;4434752;32;34441;-82
2023/12/05 07:02:38;;;;;;;;;;;;;;;0.39;74.38;99532.12;4430214;32;34064;-83
2023/12/05 07:05:08;;;;;;;;;;;;;;;0.85;72.65;99537.50;4428445;32;33638;-82
2023/12/05 07:07:37;;;;;;;;;;;;;;;0.81;71.88;99536.53;4428437;32;33383;-82
2023/12/05 07:10:06;;;;;;;;;;;;;;;0.75;73.22;99540.62;4428748;32;34123;-84
2023/12/05 07:12:35;;;;;;;;;;;;;;;0.94;72.11;99544.47;4433806;32;33722;-84
2023/12/05 07:15:04;;;;;;;;;;;;;;;0.47;73.44;99546.78;4428352;32;33516;-82
2023/12/05 07:17:33;;;;;;;;;;;;;;;-0.26;76.17;99538.91;4428330;32;32728;-84
2023/12/05 07:20:03;;;;;;;;;;;;;;;-0.19;76.63;99545.91;4429578;32;33795;-81
2023/12/05 07:22:32;;;;;;;;;;;;;;;0.36;74.52;99544.81;4435314;32;33522;-83
2023/12/05 07:25:00;;;;;;;;;;;;;;;0.55;73.79;99548.69;4422368;32;33732;-83
2023/12/05 07:27:32;;;;;;;;;;;;;;;0.52;74.07;99550.31;4429030;32;33179;-81
2023/12/05 07:30:00;;;;;;;;;;;;;;;-0.33;76.46;99560.81;4429914;32;33777;-82
2023/12/05 07:32:29;;;;;;;;;;;;;;;0.06;75.37;99549.13;4432700;32;34692;-81
2023/12/05 07:34:57;;;;;;;;;;;;;;;-0.57;78.39;99553.34;4430976;32;33875;-84
2023/12/05 07:37:27;;;;;;;;;;;;;;;-0.31;77.31;99558.31;4429740;32;32994;-82
2023/12/05 07:39:57;;;;;;;;;;;;;;;-0.33;77.71;99557.41;4429744;32;34193;-84
2023/12/05 07:42:25;;;;;;;;;;;;;;;-0.35;78.23;99553.94;4428604;32;33731;-81
2023/12/05 07:44:54;;;;;;;;;;;;;;;0.33;75.11;99551.53;4433246;32;33618;-82
2023/12/05 07:47:23;;;;;;;;;;;;;;;0.10;76.11;99553.50;4427958;32;33183;-84
2023/12/05 07:49:52;;;;;;;;;;;;;;;0.58;74.22;99558.09;4429121;32;34830;-82
2023/12/05 07:52:20;;;;;;;;;;;;;;;0.84;73.56;99557.03;4429263;32;33929;-84
2023/12/05 07:54:50;;;;;;;;;;;;;;;0.41;74.14;99553.47;4435027;32;34158;-82
2023/12/05 07:57:22;;;;;;;;;;;;;;;0.37;75.40;99551.66;4430021;32;33062;-82
2023/12/05 07:59:51;;;;;;;;;;;;;;;-0.04;76.58;99543.78;4431043;32;33891;-83
2023/12/05 08:02:20;;;;;;;;;;;;;;;0.52;75.49;99547.75;4427660;32;33839;-83
2023/12/05 08:04:49;;;;;;;;;;;;;;;0.37;75.43;99548.22;4431682;32;33224;-83
2023/12/05 08:07:18;;;;;;;;;;;;;;;0.71;74.74;99555.03;4436753;32;33256;-85
2023/12/05 08:09:46;;;;;;;;;;;;;;;0.97;73.01;99542.03;4432189;32;33422;-84
2023/12/05 08:12:18;;;;;;;;;;;;;;;1.04;73.03;99538.78;4430759;32;32464;-83
2023/12/05 08:14:47;;;;;;;;;;;;;;;1.29;72.29;99540.19;4432107;32;33762;-84
2023/12/05 08:17:15;;;;;;;;;;;;;;;1.05;72.62;99532.84;4437055;32;32772;-83
2023/12/05 08:19:44;;;;;;;;;;;;;;;0.83;73.25;99536.59;4434411;32;34040;-82
2023/12/05 08:22:12;;;;;;;;;;;;;;;1.34;71.74;99537.72;4432223;32;34003;-85
2023/12/05 08:24:41;;;;;;;;;;;;;;;0.62;73.80;99539.50;4432296;32;33757;-84
2023/12/05 08:27:09;;;;;;;;;;;;;;;0.35;74.99;99532.88;4437290;32;34047;-83
2023/12/05 08:29:39;;;;;;;;;;;;;;;0.31;75.31;99538.72;4430708;32;33281;-84
2023/12/05 08:32:09;;;;;;;;;;;;;;;-0.25;77.25;99541.50;4432582;32;34760;-84
2023/12/05 08:34:37;;;;;;;;;;;;;;;0.87;74.35;99540.94;4432255;32;33885;-83
2023/12/05 08:37:06;;;;;;;;;;;;;;;1.24;72.45;99554.53;4432272;32;33542;-83
2023/12/05 08:39:35;;;;;;;;;;;;;;;0.57;74.80;99549.59;4437122;32;33876;-82
2023/12/05 08:42:03;;;;;;;;;;;;;;;1.32;72.12;99549.59;4432210;32;34382;-84
2023/12/05 08:44:32;;;;;;;;;;;;;;;0.57;74.70;99546.16;4431828;32;34347;-84
2023/12/05 08:47:02;;;;;;;;;;;;;;;0.50;74.58;99545.16;4432679;32;32333;-83
2023/12/05 08:49:31;;;;;;;;;;;;;;;1.19;72.41;99539.13;4436725;32;34595;-84
2023/12/05 08:51:59;;;;;;;;;;;;;;;1.34;72.09;99532.59;4431859;32;33887;-82
2023/12/05 08:54:30;;;;;;;;;;;;;;;0.95;73.57;99539.44;4431817;32;33900;-83
2023/12/05 08:56:58;;;;;;;;;;;;;;;0.64;74.73;99538.69;4431909;32;33122;-83
2023/12/05 08:59:26;;;;;;;;;;;;;;;1.05;73.22;99546.47;4431572;32;34855;-82
2023/12/05 09:01:55;;;;;;;;;;;;;;;0.80;73.63;99539.09;4436756;32;34157;-84
2023/12/05 09:04:25;;;;;;;;;;;;;;;1.54;70.98;99551.78;4431909;32;34427;-82
2023/12/05 09:06:54;;;;;;;;;;;;;;;1.26;71.80;99551.19;4432108;32;32802;-82
2023/12/05 09:09:23;;;;;;;;;;;;;;;1.60;70.68;99536.56;4424474;32;34092;-83
2023/12/05 09:11:51;;;;;;;;;;;;;;;1.64;70.46;99538.38;4427027;32;33807;-83
2023/12/05 09:14:19;;;;;;;;;;;;;;;1.88;69.65;99544.78;4424010;32;33946;-84
2023/12/05 09:16:48;;;;;;;;;;;;;;;1.35;70.97;99550.50;4422606;32;33920;-83
2023/12/05 09:19:16;;;;;;;;;;;;;;;1.01;71.87;99544.66;4422182;32;33495;-84
2023/12/05 09:21:46;;;;;;;;;;;;;;;1.44;71.32;99544.75;4429327;32;34257;-82
2023/12/05 09:24:15;;;;;;;;;;;;;;;1.49;71.52;99543.16;4422312;32;33027;-83
2023/12/05 09:26:43;;;;;;;;;;;;;;;1.76;70.80;99536.87;4422075;32;33149;-82
2023/12/05 09:29:12;;;;;;;;;;;;;;;0.92;73.49;99530.81;4416492;32;34055;-83
2023/12/05 09:31:41;;;;;;;;;;;;;;;0.63;75.10;99536.97;4416762;32;35119;-82
2023/12/05 09:34:09;;;;;;;;;;;;;;;0.73;74.70;99532.97;4426869;32;33835;-83
2023/12/05 09:36:37;;;;;;;;;;;;;;;1.38;72.06;99536.97;4431614;32;33329;-85
2023/12/05 09:39:10;;;;;;;;;;;;;;;1.10;73.03;99531.25;4422419;32;34549;-84
2023/12/05 09:41:42;;;;;;;;;;;;;;;1.48;71.82;99521.84;4422981;32;34636;-86
2023/12/05 09:44:11;;;;;;;;;;;;;;;1.37;71.86;99522.44;4425651;32;35167;-85
2023/12/05 09:49:31;;;;;;;;;;;;;;;1.48;71.63;99514.16;4421562;32;34242;-84
2023/12/05 09:52:01;;;;;;;;;;;;;;;1.51;71.57;99509.97;4422680;32;34025;-85
2023/12/05 09:54:30;;;;;;;;;;;;;;;2.01;69.68;99497.28;4421203;32;33798;-84
2023/12/05 09:56:59;;;;;;;;;;;;;;;2.01;69.94;99503.25;4427697;32;34635;-83
2023/12/05 09:59:28;;;;;;;;;;;;;;;1.88;70.55;99506.41;4415930;32;34578;-84
2023/12/05 10:01:57;;;;;;;;;;;;;;;2.39;68.52;99509.88;4415964;32;33900;-83
2023/12/05 10:04:27;;;;;;;;;;;;;;;1.51;71.38;99500.59;4426470;32;33765;-84
2023/12/05 10:06:57;;;;;;;;;;;;;;;1.37;71.81;99494.31;4432210;32;32956;-86
2023/12/05 10:09:25;;;;;;;;;;;;;;;2.09;70.12;99486.34;4436212;32;34246;-84
2023/12/05 10:11:56;;;;;;;;;;;;;;;2.23;69.15;99478.91;4430667;32;34547;-84
2023/12/05 10:14:24;;;;;;;;;;;;;;;2.27;69.24;99477.25;4430943;32;33465;-86
2023/12/05 10:16:53;;;;;;;;;;;;;;;1.83;70.40;99470.50;4431350;32;33497;-84
2023/12/05 10:19:21;;;;;;;;;;;;;;;1.25;71.99;99467.69;4435928;32;34462;-83
2023/12/05 10:21:51;;;;;;;;;;;;;;;1.85;71.35;99457.75;4428537;32;34268;-83
2023/12/05 10:24:19;;;;;;;;;;;;;;;2.05;69.87;99458.09;4427866;32;33252;-86
2023/12/05 10:26:48;;;;;;;;;;;;;;;2.34;69.01;99456.91;4427929;32;33454;-84
2023/12/05 10:29:20;;;;;;;;;;;;;;;2.31;68.98;99459.41;4432385;32;34472;-87
2023/12/05 10:31:49;;;;;;;;;;;;;;;1.90;69.94;99456.12;4431216;32;35327;-87
2023/12/05 10:34:18;;;;;;;;;;;;;;;2.14;69.53;99448.03;4428036;32;33708;-85
2023/12/05 10:36:48;;;;;;;;;;;;;;;1.42;71.53;99447.56;4430644;32;33013;-85
2023/12/05 10:39:16;;;;;;;;;;;;;;;2.37;69.40;99448.41;4431277;32;34790;-87
2023/12/05 10:41:45;;;;;;;;;;;;;;;2.86;67.87;99445.72;4436071;32;34033;-86
2023/12/05 10:44:15;;;;;;;;;;;;;;;2.62;67.37;99446.22;4430736;32;33819;-85
2023/12/05 10:46:45;;;;;;;;;;;;;;;2.23;68.48;99449.91;4430268;32;32979;-87
2023/12/05 10:49:13;;;;;;;;;;;;;;;2.17;69.69;99447.22;4430908;32;33620;-84
2023/12/05 10:51:41;;;;;;;;;;;;;;;2.44;68.55;99442.56;4436263;32;34041;-85
2023/12/05 10:54:10;;;;;;;;;;;;;;;2.16;69.26;99425.88;4430921;32;33885;-86
2023/12/05 10:56:38;;;;;;;;;;;;;;;2.15;68.98;99421.63;4431215;32;34127;-87
2023/12/05 10:59:07;;;;;;;;;;;;;;;2.54;68.54;99425.62;4432009;32;34368;-87
2023/12/05 11:01:35;;;;;;;;;;;;;;;2.60;67.82;99425.72;4432115;32;35056;-85
2023/12/05 11:04:05;;;;;;;;;;;;;;;2.89;67.41;99425.25;4435990;32;33650;-84
2023/12/05 11:06:34;;;;;;;;;;;;;;;3.02;66.63;99422.03;4429615;32;32906;-85
2023/12/05 11:09:03;;;;;;;;;;;;;;;2.96;66.11;99425.34;4431309;32;34880;-85
2023/12/05 11:11:31;;;;;;;;;;;;;;;3.05;65.71;99432.31;4430867;32;34953;-86
2023/12/05 11:14:00;;;;;;;;;;;;;;;2.77;67.06;99438.75;4435609;32;33497;-87
2023/12/05 11:16:29;;;;;;;;;;;;;;;3.08;66.05;99436.63;4430630;32;33601;-86
2023/12/05 11:19:00;;;;;;;;;;;;;;;2.91;66.84;99437.25;4430642;32;34203;-86
2023/12/05 11:21:43;;;;;;;;;;;;;;;2.86;66.85;99426.06;4431088;32;33577;-86
2023/12/05 11:24:24;;;;;;;;;;;;;;;2.29;68.46;99432.91;4432866;32;33469;-85
2023/12/05 11:27:06;;;;;;;;;;;;;;;2.59;68.11;99431.69;4437483;32;33555;-86
2023/12/05 11:29:39;;;;;;;;;;;;;;;2.61;67.56;99432.56;4433826;32;33789;-87
2023/12/05 11:32:12;;;;;;;;;;;;;;;3.14;66.46;99431.56;4431634;32;33605;-88
2023/12/05 11:34:45;;;;;;;;;;;;;;;2.91;67.24;99426.16;4432586;32;34361;-87
2023/12/05 11:37:21;;;;;;;;;;;;;;;2.70;67.60;99429.25;4432792;32;33313;-85
2023/12/05 11:39:50;;;;;;;;;;;;;;;3.30;66.48;99425.78;4437126;32;33769;-87
2023/12/05 11:42:20;;;;;;;;;;;;;;;3.44;65.72;99428.50;4432809;32;34016;-87
2023/12/05 11:44:48;;;;;;;;;;;;;;;2.92;66.71;99425.28;4432432;32;34176;-86
2023/12/05 11:47:17;;;;;;;;;;;;;;;1.71;71.21;99432.78;4432561;32;33005;-85
2023/12/05 11:49:50;;;;;;;;;;;;;;;1.87;70.37;99431.38;4437332;32;33751;-85
2023/12/05 11:52:23;;;;;;;;;;;;;;;1.85;71.00;99429.63;4437140;32;34312;-86
2023/12/05 11:54:53;;;;;;;;;;;;;;;2.05;71.34;99428.25;4432458;32;33250;-88
2023/12/05 11:57:22;;;;;;;;;;;;;;;2.42;69.40;99433.12;4433357;32;33302;-87
2023/12/05 11:59:51;;;;;;;;;;;;;;;1.70;71.83;99433.62;4432131;32;33684;-86
2023/12/05 12:02:25;;;;;;;;;;;;;;;2.34;69.58;99433.00;4436880;32;34864;-87
2023/12/05 12:04:59;;;;;;;;;;;;;;;2.38;69.15;99426.22;4430202;32;33709;-87
2023/12/05 12:07:29;;;;;;;;;;;;;;;2.23;70.33;99421.75;4428097;32;32803;-86
2023/12/05 12:09:57;;;;;;;;;;;;;;;2.62;69.16;99425.75;4432197;32;33724;-86
2023/12/05 12:12:26;;;;;;;;;;;;;;;1.76;71.53;99430.31;4432317;32;33555;-85
2023/12/05 12:14:55;;;;;;;;;;;;;;;2.28;69.24;99420.09;4437150;32;34742;-86
2023/12/05 12:17:24;;;;;;;;;;;;;;;2.02;71.53;99414.56;4432454;32;33666;-86
2023/12/05 12:19:52;;;;;;;;;;;;;;;2.38;70.35;99421.13;4432146;32;33744;-87
2023/12/05 12:22:21;;;;;;;;;;;;;;;2.46;68.83;99424.63;4425421;32;34754;-86
2023/12/05 12:24:51;;;;;;;;;;;;;;;2.06;70.19;99429.13;4421791;32;33171;-86
2023/12/05 12:27:21;;;;;;;;;;;;;;;2.09;70.10;99414.69;4429862;32;33233;-85
2023/12/05 12:29:52;;;;;;;;;;;;;;;1.52;72.30;99415.38;4432053;32;34091;-85
2023/12/05 12:32:21;;;;;;;;;;;;;;;1.93;70.38;99412.69;4424934;32;34333;-85
2023/12/05 12:34:49;;;;;;;;;;;;;;;1.25;72.92;99414.00;4424691;32;33383;-87
2023/12/05 12:37:18;;;;;;;;;;;;;;;1.75;72.16;99417.50;4432807;32;34011;-86
2023/12/05 12:39:51;;;;;;;;;;;;;;;1.48;73.11;99418.72;4429424;32;34010;-85
2023/12/05 12:42:20;;;;;;;;;;;;;;;2.47;69.41;99409.31;4423844;32;34103;-85
2023/12/05 12:44:49;;;;;;;;;;;;;;;2.14;71.20;99417.31;4420832;32;33727;-86
2023/12/05 12:47:17;;;;;;;;;;;;;;;2.49;69.64;99412.75;4420167;32;31882;-85
2023/12/05 12:49:46;;;;;;;;;;;;;;;1.37;73.62;99412.53;4416816;32;33377;-84
2023/12/05 12:52:14;;;;;;;;;;;;;;;1.99;71.84;99415.38;4415717;32;34630;-84
2023/12/05 12:54:43;;;;;;;;;;;;;;;1.32;73.73;99409.91;4427258;32;34005;-84
2023/12/05 12:57:14;;;;;;;;;;;;;;;1.36;73.83;99404.03;4436988;32;33370;-85
2023/12/05 12:59:42;;;;;;;;;;;;;;;1.26;74.04;99409.78;4431921;32;34581;-84
2023/12/05 13:02:10;;;;;;;;;;;;;;;0.92;76.04;99406.56;4432197;32;35571;-83
2023/12/05 13:04:39;;;;;;;;;;;;;;;1.10;74.74;99405.19;4431999;32;34338;-84
2023/12/05 13:07:08;;;;;;;;;;;;;;;1.26;75.40;99402.12;4431456;32;33282;-84